Time;durP1;ratioP1;P1;durP2;ratioP2;P2;SDS_P1;SDS_P2;PMS_P1;PMS_P2;Temp;Humidity;BMP_temperature;BMP_pressure;BME280_temperature;BME280_humidity;BME280_pressure;Samples;Min_cycle;Max_cycle;Signal;HPM_P1;HPM_P2
2021/11/27 00:01:44;;;;;;;2.95;2.53;;;;;;;2.64;74.02;94160.00;5073640;28;20421;-70
2021/11/27 00:04:10;;;;;;;3.40;2.40;;;;;;;2.70;73.19;94157.25;5071944;28;20862;-70
2021/11/27 00:06:36;;;;;;;2.85;2.60;;;;;;;2.51;73.84;94156.75;5084561;28;20414;-70
2021/11/27 00:09:02;;;;;;;2.85;2.58;;;;;;;2.76;73.49;94145.94;5091735;28;20496;-70
2021/11/27 00:11:28;;;;;;;3.22;2.53;;;;;;;2.74;72.43;94147.97;5092323;28;20381;-70
2021/11/27 00:13:55;;;;;;;2.60;2.40;;;;;;;2.74;72.80;94139.44;5091425;28;20964;-70
2021/11/27 00:16:21;;;;;;;3.17;2.47;;;;;;;2.56;73.27;94132.78;5092261;28;20394;-70
2021/11/27 00:18:47;;;;;;;2.65;2.20;;;;;;;2.58;73.33;94137.69;5091906;28;20385;-70
2021/11/27 00:21:14;;;;;;;2.85;2.42;;;;;;;2.74;72.53;94135.03;5092155;28;20454;-69
2021/11/27 00:23:41;;;;;;;2.50;2.30;;;;;;;2.76;72.76;94135.59;5091829;28;20390;-70
2021/11/27 00:26:10;;;;;;;3.00;2.33;;;;;;;2.64;73.04;94128.97;5092183;28;20390;-70
2021/11/27 00:28:36;;;;;;;2.65;2.10;;;;;;;2.70;72.38;94138.34;5073674;28;20409;-71
2021/11/27 00:31:06;;;;;;;3.17;2.37;;;;;;;2.66;72.80;94129.53;5073995;28;20736;-70
2021/11/27 00:33:32;;;;;;;2.38;2.15;;;;;;;2.65;72.99;94133.13;5092159;28;20394;-70
2021/11/27 00:35:57;;;;;;;2.10;2.00;;;;;;;2.66;72.37;94132.91;5073896;28;20394;-70
2021/11/27 00:38:23;;;;;;;2.67;2.20;;;;;;;2.79;72.11;94131.72;5092380;28;20747;-70
2021/11/27 00:40:50;;;;;;;2.37;2.17;;;;;;;2.74;71.79;94127.28;5091689;28;20394;-70
2021/11/27 00:43:16;;;;;;;2.92;2.00;;;;;;;2.80;71.90;94123.72;5091656;28;20391;-70
2021/11/27 00:45:44;;;;;;;2.30;2.10;;;;;;;2.68;72.28;94123.06;5073510;28;20469;-70
2021/11/27 00:48:12;;;;;;;2.47;2.20;;;;;;;2.86;71.22;94120.16;5091994;28;20443;-70
2021/11/27 00:50:45;;;;;;;2.15;1.95;;;;;;;2.71;72.13;94114.84;5073783;28;20766;-70
2021/11/27 00:53:11;;;;;;;2.20;2.00;;;;;;;2.89;71.59;94118.91;5091411;28;20437;-70
2021/11/27 00:55:37;;;;;;;2.00;1.90;;;;;;;2.81;71.61;94119.34;5091110;28;20406;-70
2021/11/27 00:58:03;;;;;;;2.60;2.20;;;;;;;2.94;71.84;94118.97;5091428;28;20882;-70
2021/11/27 01:00:32;;;;;;;2.20;2.07;;;;;;;2.83;71.40;94115.50;5093824;28;20404;-70
2021/11/27 01:03:00;;;;;;;2.42;2.22;;;;;;;2.82;71.49;94113.16;5091425;28;20755;-70
2021/11/27 01:05:26;;;;;;;2.30;2.10;;;;;;;2.93;71.70;94102.66;5090596;28;20402;-70
2021/11/27 01:07:52;;;;;;;2.30;2.10;;;;;;;2.98;71.26;94101.91;5091603;28;20406;-71
2021/11/27 01:10:21;;;;;;;2.45;2.25;;;;;;;2.87;71.59;94102.84;5091137;28;20504;-70
2021/11/27 01:12:48;;;;;;;2.20;2.00;;;;;;;2.74;72.17;94098.84;5091805;28;20398;-70
2021/11/27 01:15:17;;;;;;;2.28;2.08;;;;;;;2.80;71.97;94097.88;5091459;28;20393;-70
2021/11/27 01:17:43;;;;;;;2.33;2.20;;;;;;;2.91;71.19;94098.72;5091193;28;20396;-70
2021/11/27 01:20:11;;;;;;;2.30;2.10;;;;;;;2.84;72.16;94096.34;5091290;28;20394;-70
2021/11/27 01:22:36;;;;;;;2.50;2.05;;;;;;;2.92;71.29;94098.50;5091220;28;20397;-69
2021/11/27 01:25:03;;;;;;;3.20;2.35;;;;;;;2.79;71.62;94092.94;5091507;28;20823;-69
2021/11/27 01:27:29;;;;;;;5.30;2.75;;;;;;;2.78;71.90;94081.84;5095679;28;20382;-70
2021/11/27 01:29:54;;;;;;;2.90;2.40;;;;;;;2.70;72.25;94084.84;5095346;28;20550;-70
2021/11/27 01:32:20;;;;;;;3.08;2.40;;;;;;;2.65;73.56;94077.03;5095770;28;20394;-69
2021/11/27 01:34:47;;;;;;;3.17;2.60;;;;;;;2.71;72.96;94076.06;5094841;28;20400;-70
2021/11/27 01:37:13;;;;;;;3.05;2.75;;;;;;;2.70;73.56;94082.25;5095194;28;20393;-71
2021/11/27 01:39:41;;;;;;;3.30;2.30;;;;;;;2.41;74.05;94073.16;5096245;28;20192;-70
2021/11/27 01:42:07;;;;;;;;;;;;;;;2.49;74.60;94075.31;5095795;28;20035;-71
2021/11/27 01:44:33;;;;;;;3.15;2.85;;;;;;;2.56;74.53;94078.50;5076945;28;20383;-70
2021/11/27 01:46:58;;;;;;;3.07;2.57;;;;;;;2.36;75.14;94071.31;5096344;28;20181;-70
2021/11/27 01:49:24;;;;;;;3.20;2.40;;;;;;;2.23;75.70;94063.91;5096188;28;20204;-70
2021/11/27 01:51:50;;;;;;;;;;;;;;;2.19;75.62;94062.06;5077992;28;20032;-70
2021/11/27 01:54:15;;;;;;;;;;;;;;;2.13;76.12;94057.84;5096565;28;19912;-70
2021/11/27 01:56:44;;;;;;;;;;;;;;;2.18;76.18;94063.06;5078710;28;20393;-70
2021/11/27 01:59:09;;;;;;;;;;;;;;;2.24;76.40;94062.91;5096611;28;19915;-69
2021/11/27 02:01:37;;;;;;;4.80;3.53;;;;;;;2.19;77.31;94060.25;5094790;28;20396;-69
2021/11/27 02:04:05;;;;;;;3.73;3.10;;;;;;;2.22;76.99;94053.84;5096416;28;20645;-69
2021/11/27 02:06:32;;;;;;;3.50;3.03;;;;;;;2.32;76.37;94046.19;5097362;28;20270;-70
2021/11/27 02:08:58;;;;;;;4.20;3.20;;;;;;;2.43;76.44;94037.53;5097231;28;20212;-69
2021/11/27 02:11:34;;;;;;;3.53;3.23;;;;;;;2.50;76.61;94032.94;5096834;28;20176;-69
2021/11/27 02:14:00;;;;;;;5.17;2.93;;;;;;;2.49;76.95;94024.41;5096094;28;20165;-69
2021/11/27 02:16:26;;;;;;;4.37;3.33;;;;;;;2.56;76.31;94033.78;5095922;28;20180;-69
2021/11/27 02:18:51;;;;;;;3.67;3.13;;;;;;;2.60;76.22;94030.44;5096089;28;20276;-70
2021/11/27 02:21:20;;;;;;;4.27;3.20;;;;;;;2.63;75.52;94029.16;5096321;28;20217;-70
2021/11/27 02:23:46;;;;;;;4.53;3.37;;;;;;;2.55;76.28;94027.03;5078472;28;20180;-70
2021/11/27 02:26:14;;;;;;;3.43;2.90;;;;;;;2.47;76.95;94020.50;5096677;28;20696;-69
2021/11/27 02:28:45;;;;;;;3.40;2.90;;;;;;;2.52;76.19;94017.97;5096414;28;20197;-69
2021/11/27 02:31:10;;;;;;;3.97;2.93;;;;;;;2.59;76.68;94018.56;5079380;28;20225;-70
2021/11/27 02:33:36;;;;;;;3.87;3.00;;;;;;;2.59;76.66;94015.97;5096870;28;20236;-70
2021/11/27 02:36:02;;;;;;;3.80;3.10;;;;;;;2.70;75.97;94006.47;5096222;28;20200;-70
2021/11/27 02:38:28;;;;;;;3.30;2.90;;;;;;;2.62;76.81;94004.38;5096248;28;20542;-69
2021/11/27 02:40:54;;;;;;;3.40;2.97;;;;;;;2.63;76.46;94004.09;5095065;28;20203;-69
2021/11/27 02:43:19;;;;;;;3.13;2.83;;;;;;;2.59;76.71;94007.44;5094978;28;20181;-69
2021/11/27 02:45:45;;;;;;;4.43;3.20;;;;;;;2.63;76.53;94009.28;5077250;28;20667;-70
2021/11/27 02:48:11;;;;;;;3.60;3.07;;;;;;;2.52;76.67;94002.44;5076782;28;20645;-69
2021/11/27 02:50:37;;;;;;;3.30;2.90;;;;;;;2.56;77.03;94000.16;5094958;28;20184;-69
2021/11/27 02:53:02;;;;;;;3.57;2.50;;;;;;;2.51;76.99;93995.72;5094548;28;20188;-69
2021/11/27 02:55:28;;;;;;;3.20;2.60;;;;;;;2.49;77.08;93993.41;5094834;28;20310;-69
2021/11/27 02:57:53;;;;;;;3.07;2.73;;;;;;;2.62;76.36;93986.25;5094538;28;20188;-70
2021/11/27 03:00:22;;;;;;;3.50;3.10;;;;;;;2.53;76.32;93996.25;5076697;28;20654;-69
2021/11/27 03:02:49;;;;;;;3.13;2.77;;;;;;;2.43;77.88;93981.44;5094778;28;20267;-70
2021/11/27 03:05:16;;;;;;;4.30;3.10;;;;;;;2.60;77.67;93980.56;5094098;28;20196;-70
2021/11/27 03:07:42;;;;;;;3.87;3.00;;;;;;;2.56;76.98;93985.44;5094441;28;20208;-70
2021/11/27 03:10:09;;;;;;;4.00;3.00;;;;;;;2.58;78.12;93977.41;5094560;28;20297;-70
2021/11/27 03:12:35;;;;;;;3.30;2.87;;;;;;;2.70;77.12;93984.00;5094685;28;20181;-70
2021/11/27 03:15:01;;;;;;;3.30;3.00;;;;;;;2.72;77.25;93979.38;5075948;28;20676;-70
2021/11/27 03:17:26;;;;;;;3.10;2.80;;;;;;;2.63;77.33;93980.81;5094648;28;20184;-70
2021/11/27 03:19:52;;;;;;;3.67;2.77;;;;;;;2.73;77.55;93986.06;5094513;28;20177;-70
2021/11/27 03:22:19;;;;;;;3.60;2.57;;;;;;;2.72;77.14;93994.88;5076347;28;20180;-70
2021/11/27 03:24:46;;;;;;;4.80;3.20;;;;;;;2.60;78.24;93985.72;5094425;28;20645;-70
2021/11/27 03:27:14;;;;;;;4.57;3.10;;;;;;;2.47;78.78;93987.69;5094658;28;20254;-70
2021/11/27 03:29:41;;;;;;;3.03;2.70;;;;;;;2.59;78.94;93984.94;5094713;28;20250;-70
2021/11/27 03:32:14;;;;;;;3.17;2.83;;;;;;;2.62;78.88;93983.69;5094462;28;20597;-69
2021/11/27 03:34:41;;;;;;;4.03;2.73;;;;;;;2.75;78.67;93993.59;5094198;28;20183;-70
2021/11/27 03:37:07;;;;;;;6.83;3.00;;;;;;;2.81;78.22;93993.41;5076080;28;20181;-70
2021/11/27 03:39:34;;;;;;;3.37;2.60;;;;;;;2.90;78.17;93991.91;5094126;28;20184;-70
2021/11/27 03:42:01;;;;;;;3.10;2.73;;;;;;;2.89;78.48;93997.34;5094202;28;20181;-69
2021/11/27 03:44:27;;;;;;;4.40;2.77;;;;;;;2.81;79.12;93992.63;5093892;28;20666;-69
2021/11/27 03:46:53;;;;;;;3.90;2.77;;;;;;;2.65;80.59;93998.69;5075820;28;20177;-69
2021/11/27 03:49:24;;;;;;;3.03;2.40;;;;;;;2.62;82.59;93996.59;5092893;28;20219;-71
2021/11/27 03:51:49;;;;;;;3.23;2.47;;;;;;;2.60;82.70;93994.25;5077140;28;20184;-70
2021/11/27 03:54:15;;;;;;;2.50;2.30;;;;;;;2.57;84.42;93989.56;5094176;28;20192;-70
2021/11/27 03:56:40;;;;;;;4.97;2.90;;;;;;;2.49;84.60;93998.56;5075966;28;20207;-70
2021/11/27 03:59:06;;;;;;;3.93;2.17;;;;;;;2.50;85.70;93999.34;5100700;28;20586;-70
2021/11/27 04:01:32;;;;;;;2.73;2.50;;;;;;;2.49;85.26;93985.63;5095367;28;20176;-70
2021/11/27 04:03:59;;;;;;;2.70;2.50;;;;;;;2.59;84.91;93984.94;5093749;28;20211;-70
2021/11/27 04:06:25;;;;;;;3.23;2.47;;;;;;;2.50;85.16;93986.41;5093571;28;20228;-69
2021/11/27 04:08:50;;;;;;;2.70;2.30;;;;;;;2.57;85.59;93992.16;5075280;28;20645;-71
2021/11/27 04:11:16;;;;;;;3.37;2.60;;;;;;;2.50;85.16;93989.00;5092958;28;20683;-70
2021/11/27 04:13:42;;;;;;;4.13;2.77;;;;;;;2.48;85.26;93989.25;5093631;28;20225;-69
2021/11/27 04:16:07;;;;;;;1.93;1.83;;;;;;;2.48;84.83;93978.91;5093303;28;20227;-70
2021/11/27 04:18:33;;;;;;;4.07;2.50;;;;;;;2.46;84.97;93990.50;5075166;28;20226;-70
2021/11/27 04:20:59;;;;;;;2.60;2.40;;;;;;;2.50;84.80;93994.19;5092863;28;20188;-70
2021/11/27 04:23:25;;;;;;;3.87;2.50;;;;;;;2.49;85.27;93982.28;5093196;28;20583;-70
2021/11/27 04:25:51;;;;;;;2.93;2.27;;;;;;;2.46;84.49;93980.16;5093204;28;20241;-70
2021/11/27 04:28:17;;;;;;;3.20;2.47;;;;;;;2.50;85.42;93981.25;5085083;28;20664;-69
2021/11/27 04:30:43;;;;;;;3.30;2.23;;;;;;;2.55;84.65;93977.94;5093008;28;20181;-70
2021/11/27 04:33:09;;;;;;;2.50;2.30;;;;;;;2.48;86.05;93976.31;5092490;28;20649;-70
2021/11/27 04:35:35;;;;;;;3.03;2.50;;;;;;;2.54;85.37;93979.72;5092831;28;20559;-69
2021/11/27 04:38:01;;;;;;;1.87;1.77;;;;;;;2.61;85.51;93984.69;5075100;28;20191;-69
2021/11/27 04:40:27;;;;;;;2.60;2.03;;;;;;;2.75;84.05;93985.84;5093063;28;20184;-70
2021/11/27 04:42:53;;;;;;;2.57;2.00;;;;;;;2.70;84.57;93991.75;5093014;28;20181;-71
2021/11/27 04:45:19;;;;;;;3.17;1.83;;;;;;;2.57;85.27;93994.72;5092728;28;20185;-70
2021/11/27 04:47:45;;;;;;;4.30;2.27;;;;;;;2.57;85.38;93989.56;5092397;28;20263;-71
2021/11/27 04:50:11;;;;;;;2.37;1.80;;;;;;;2.69;84.60;93997.94;5092774;28;20200;-70
2021/11/27 04:52:37;;;;;;;2.23;1.80;;;;;;;2.70;85.16;93996.94;5092537;28;20180;-70
2021/11/27 04:55:05;;;;;;;3.53;1.63;;;;;;;2.66;85.45;93997.66;5093017;28;20207;-70
2021/11/27 04:57:30;;;;;;;2.30;1.93;;;;;;;2.63;84.21;93998.94;5092765;28;20236;-70
2021/11/27 04:59:56;;;;;;;1.87;1.60;;;;;;;2.66;85.05;94005.44;5101877;28;20531;-69
2021/11/27 05:02:21;;;;;;;1.67;1.57;;;;;;;2.64;84.22;94003.06;5092343;28;20259;-69
2021/11/27 05:04:47;;;;;;;2.03;1.47;;;;;;;2.75;83.50;94002.13;5092701;28;20289;-71
2021/11/27 05:07:12;;;;;;;1.77;1.67;;;;;;;2.65;83.96;94003.84;5092278;28;20582;-71
2021/11/27 05:09:38;;;;;;;1.47;1.37;;;;;;;2.65;84.00;94001.28;5093004;28;20219;-70
2021/11/27 05:12:03;;;;;;;3.40;1.27;;;;;;;2.74;83.44;94003.16;5092877;28;20230;-71
2021/11/27 05:14:29;;;;;;;1.70;1.60;;;;;;;2.77;83.24;94001.91;5092685;28;20180;-71
2021/11/27 05:16:54;;;;;;;1.40;1.30;;;;;;;2.86;83.46;94008.94;5092311;28;20191;-71
2021/11/27 05:19:19;;;;;;;1.80;1.50;;;;;;;2.79;83.49;94005.78;5074770;28;20593;-70
2021/11/27 05:21:45;;;;;;;1.40;1.30;;;;;;;2.65;84.32;94006.44;5092583;28;20181;-70
2021/11/27 05:24:11;;;;;;;1.57;1.47;;;;;;;2.57;85.50;94009.47;5092692;28;20246;-71
2021/11/27 05:26:36;;;;;;;1.50;1.40;;;;;;;2.73;84.63;94009.34;5092604;28;20280;-70
2021/11/27 05:29:02;;;;;;;1.43;1.33;;;;;;;2.62;86.05;94007.69;5092693;28;20209;-71
2021/11/27 05:31:28;;;;;;;1.13;1.10;;;;;;;2.60;85.77;94012.34;5092705;28;20199;-71
2021/11/27 05:36:26;;;;;;;1.33;1.23;;;;;;;2.67;86.59;94025.88;5092147;28;20185;-70
2021/11/27 05:38:52;;;;;;;1.30;1.30;;;;;;;2.72;87.19;94022.53;5074872;28;20180;-71
2021/11/27 05:41:17;;;;;;;1.40;1.30;;;;;;;2.69;87.99;94020.44;5092480;28;20188;-70
2021/11/27 05:43:43;;;;;;;1.40;1.30;;;;;;;2.63;87.49;94024.00;5091605;28;20173;-71
2021/11/27 05:46:09;;;;;;;1.37;1.27;;;;;;;2.64;87.95;94020.38;5092050;28;20197;-71
2021/11/27 05:48:35;;;;;;;1.50;1.40;;;;;;;2.48;89.10;94027.22;5092218;28;20193;-70
2021/11/27 05:51:01;;;;;;;1.40;1.30;;;;;;;2.42;89.70;94021.22;5092066;28;20185;-71
2021/11/27 05:53:26;;;;;;;1.37;1.27;;;;;;;2.51;89.33;94026.72;5092059;28;20192;-70
2021/11/27 05:55:51;;;;;;;1.67;1.57;;;;;;;2.67;88.42;94031.03;5092218;28;20726;-70
2021/11/27 05:58:20;;;;;;;1.63;1.20;;;;;;;2.71;88.80;94026.94;5094371;28;20187;-70
2021/11/27 06:00:46;;;;;;;1.53;1.40;;;;;;;2.69;88.69;94026.38;5092371;28;20184;-72
2021/11/27 06:03:11;;;;;;;1.30;1.30;;;;;;;2.80;87.84;94028.03;5091773;28;20276;-70
2021/11/27 06:05:37;;;;;;;1.57;1.47;;;;;;;2.76;88.97;94024.38;5091639;28;20260;-70
2021/11/27 06:08:03;;;;;;;2.10;1.60;;;;;;;2.87;88.17;94022.66;5092312;28;20173;-70
2021/11/27 06:10:29;;;;;;;1.60;1.50;;;;;;;2.81;88.36;94023.66;5092254;28;20303;-70
2021/11/27 06:12:55;;;;;;;1.60;1.50;;;;;;;2.79;88.29;94023.88;5095138;28;20184;-70
2021/11/27 06:15:20;;;;;;;2.77;1.73;;;;;;;2.73;88.79;94031.88;5095523;28;20265;-70
2021/11/27 06:17:46;;;;;;;1.90;1.67;;;;;;;2.82;87.97;94036.34;5095319;28;20208;-70
2021/11/27 06:20:11;;;;;;;1.60;1.50;;;;;;;2.83;89.14;94040.50;5076567;28;20655;-70
2021/11/27 06:22:38;;;;;;;2.50;1.50;;;;;;;2.88;88.55;94032.78;5095526;28;20195;-70
2021/11/27 06:25:04;;;;;;;1.37;1.30;;;;;;;2.87;88.91;94033.78;5077582;28;20173;-70
2021/11/27 06:27:29;;;;;;;2.00;1.50;;;;;;;2.82;89.13;94032.97;5095549;28;20180;-70
2021/11/27 06:29:55;;;;;;;3.23;1.73;;;;;;;2.70;89.42;94038.28;5094847;28;20204;-70
2021/11/27 06:32:23;;;;;;;2.53;1.70;;;;;;;2.66;89.59;94039.81;5094880;28;20192;-70
2021/11/27 06:34:54;;;;;;;1.60;1.50;;;;;;;2.76;90.25;94042.50;5095413;28;20192;-70
2021/11/27 06:37:21;;;;;;;1.40;1.40;;;;;;;2.82;89.80;94033.75;5095120;28;20259;-70
2021/11/27 06:39:47;;;;;;;1.47;1.40;;;;;;;2.65;90.95;94029.72;5095175;28;20267;-70
2021/11/27 06:42:13;;;;;;;1.40;1.40;;;;;;;2.81;90.17;94036.56;5095008;28;20192;-70
2021/11/27 06:44:46;;;;;;;1.20;1.20;;;;;;;2.80;89.74;94046.13;5095277;28;20181;-70
2021/11/27 06:47:11;;;;;;;1.80;1.60;;;;;;;2.71;90.46;94044.25;5094935;28;20262;-70
2021/11/27 06:49:36;;;;;;;1.50;1.40;;;;;;;2.73;90.67;94047.38;5094792;28;20235;-70
2021/11/27 06:52:02;;;;;;;1.57;1.40;;;;;;;2.62;90.91;94051.66;5094503;28;20226;-70
2021/11/27 06:54:27;;;;;;;1.33;1.30;;;;;;;2.69;90.66;94054.84;5094724;28;20183;-69
2021/11/27 06:56:53;;;;;;;1.83;1.50;;;;;;;2.67;90.64;94050.94;5095176;28;20192;-70
2021/11/27 06:59:19;;;;;;;1.23;1.20;;;;;;;2.60;91.72;94063.28;5077388;28;20631;-70
2021/11/27 07:01:44;;;;;;;1.30;1.20;;;;;;;2.75;91.74;94053.06;5076566;28;20208;-70
2021/11/27 07:04:10;;;;;;;1.27;1.20;;;;;;;2.75;91.47;94053.06;5093806;28;20267;-71
2021/11/27 07:06:35;;;;;;;1.10;1.10;;;;;;;2.77;91.22;94062.16;5094635;28;20226;-70
2021/11/27 07:09:01;;;;;;;1.40;1.30;;;;;;;2.75;91.25;94068.59;5076527;28;20204;-69
2021/11/27 07:11:26;;;;;;;1.43;1.33;;;;;;;2.87;91.07;94071.81;5076703;28;20180;-70
2021/11/27 07:13:51;;;;;;;1.20;1.10;;;;;;;2.85;91.16;94079.81;5094386;28;20179;-70
2021/11/27 07:16:17;;;;;;;2.33;1.50;;;;;;;2.68;91.67;94086.88;5076540;28;20188;-70
2021/11/27 07:18:42;;;;;;;1.40;1.30;;;;;;;2.90;91.44;94092.78;5094141;28;20176;-70
2021/11/27 07:21:07;;;;;;;1.30;1.20;;;;;;;2.80;92.34;94103.03;5094647;28;20188;-70
2021/11/27 07:23:33;;;;;;;1.33;1.23;;;;;;;2.91;91.47;94099.53;5093314;28;20180;-70
2021/11/27 07:25:58;;;;;;;1.50;1.37;;;;;;;2.95;91.51;94107.59;5094524;28;20562;-69
2021/11/27 07:28:24;;;;;;;1.30;1.20;;;;;;;3.08;90.70;94107.16;5094862;28;20632;-69
2021/11/27 07:30:49;;;;;;;1.10;1.10;;;;;;;2.92;91.76;94105.47;5094554;28;20177;-69
2021/11/27 07:33:15;;;;;;;1.57;1.47;;;;;;;2.91;91.29;94112.44;5076197;28;20180;-70
2021/11/27 07:35:40;;;;;;;2.47;1.30;;;;;;;2.93;91.76;94117.38;5076201;28;20231;-69
2021/11/27 07:38:06;;;;;;;1.73;1.40;;;;;;;2.98;91.05;94120.03;5094072;28;20189;-69
2021/11/27 07:40:32;;;;;;;1.27;1.20;;;;;;;2.96;91.37;94121.28;5093849;28;20233;-69
2021/11/27 07:42:58;;;;;;;1.10;1.10;;;;;;;3.08;91.66;94117.53;5094226;28;20173;-69
2021/11/27 07:45:24;;;;;;;1.70;1.60;;;;;;;3.07;90.23;94120.34;5093742;28;20265;-69
2021/11/27 07:47:49;;;;;;;1.67;1.33;;;;;;;3.09;91.04;94133.81;5093893;28;20267;-69
2021/11/27 07:50:15;;;;;;;1.40;1.30;;;;;;;3.12;90.64;94133.34;5092970;28;20201;-69
2021/11/27 07:52:41;;;;;;;1.10;1.10;;;;;;;2.97;91.27;94125.44;5075147;28;20177;-69
2021/11/27 07:55:07;;;;;;;1.40;1.30;;;;;;;2.92;91.60;94126.94;5093277;28;20517;-68
2021/11/27 07:57:33;;;;;;;1.53;1.40;;;;;;;2.96;91.87;94132.41;5093825;28;20207;-69
2021/11/27 07:59:58;;;;;;;1.10;1.10;;;;;;;2.86;92.01;94129.72;5093688;28;20189;-69
2021/11/27 08:02:23;;;;;;;1.43;1.10;;;;;;;3.17;91.50;94131.59;5093197;28;20176;-69
2021/11/27 08:04:49;;;;;;;1.10;1.10;;;;;;;3.18;91.02;94140.09;5081571;28;20193;-69
2021/11/27 08:07:14;;;;;;;1.30;1.30;;;;;;;3.34;90.58;94136.66;5094100;28;20224;-69
2021/11/27 08:09:40;;;;;;;1.60;1.40;;;;;;;3.38;90.07;94140.31;5093475;28;20196;-66
2021/11/27 08:12:05;;;;;;;;;;;;;;;4.37;95.34;94139.63;5093889;28;20042;-69
2021/11/27 08:14:33;;;;;;;;;;;;;;;4.18;87.69;94147.81;5093671;28;19916;-68
2021/11/27 08:16:59;;;;;;;;;;;;;;;3.85;87.60;94142.97;5093621;28;20360;-69
2021/11/27 08:19:25;;;;;;;;;;;;;;;3.86;87.17;94157.47;5094120;28;19915;-68
2021/11/27 08:21:50;;;;;;;;;;;;;;;3.66;88.43;94165.13;5093674;28;19916;-69
2021/11/27 08:24:15;;;;;;;;;;;;;;;3.73;87.90;94155.34;5093852;28;20006;-68
2021/11/27 08:26:41;;;;;;;;;;;;;;;3.69;88.80;94162.03;5093543;28;19927;-69
2021/11/27 08:29:07;;;;;;;;;;;;;;;3.58;88.91;94158.56;5075664;28;20002;-69
2021/11/27 08:31:32;;;;;;;;;;;;;;;3.61;89.24;94168.44;5093443;28;19962;-70
2021/11/27 08:33:57;;;;;;;;;;;;;;;3.72;89.21;94164.13;5093527;28;19943;-70
2021/11/27 08:36:23;;;;;;;;;;;;;;;3.83;87.70;94175.34;5093250;28;20010;-70
2021/11/27 08:38:48;;;;;;;;;;;;;;;3.68;87.85;94179.38;5093697;28;19916;-71
2021/11/27 08:41:13;;;;;;;;;;;;;;;3.84;87.53;94177.69;5094253;28;19923;-73
2021/11/27 08:43:39;;;;;;;;;;;;;;;3.83;88.14;94183.13;5093314;28;20404;-70
2021/11/27 08:46:04;;;;;;;;;;;;;;;3.83;87.78;94183.91;5093076;28;19923;-69
2021/11/27 08:48:29;;;;;;;;;;;;;;;3.78;87.96;94178.69;5093392;28;19920;-71
2021/11/27 08:50:55;;;;;;;;;;;;;;;3.95;87.44;94176.72;5075107;28;19939;-71
2021/11/27 08:53:20;;;;;;;;;;;;;;;4.12;85.84;94179.91;5092985;28;20067;-71
2021/11/27 08:55:45;;;;;;;;;;;;;;;4.15;85.70;94171.66;5093142;28;20001;-73
2021/11/27 08:58:11;;;;;;;;;;;;;;;3.99;87.05;94174.41;5094211;28;19990;-71
2021/11/27 09:00:36;;;;;;;;;;;;;;;4.38;85.52;94175.69;5092392;28;19916;-71
2021/11/27 09:03:02;;;;;;;;;;;;;;;4.42;84.62;94188.91;5074503;28;20442;-72
2021/11/27 09:05:27;;;;;;;;;;;;;;;4.47;83.93;94184.53;5085036;28;20324;-71
2021/11/27 09:07:53;;;;;;;;;;;;;;;4.54;83.55;94198.06;5089569;28;19916;-69
2021/11/27 09:10:18;;;;;;;;;;;;;;;4.44;84.33;94192.81;5092576;28;19946;-69
2021/11/27 09:12:44;;;;;;;;;;;;;;;4.47;84.26;94200.09;5074812;28;19920;-71
2021/11/27 09:15:09;;;;;;;;;;;;;;;4.62;84.21;94196.00;5092626;28;19923;-68
2021/11/27 09:17:35;;;;;;;;;;;;;;;4.76;83.87;94200.47;5092589;28;20399;-69
2021/11/27 09:20:00;;;;;;;;;;;;;;;5.16;82.30;94196.44;5093102;28;19916;-70
2021/11/27 09:22:25;;;;;;;;;;;;;;;5.22;81.54;94206.59;5092506;28;19923;-71
2021/11/27 09:24:50;;;;;;;;;;;;;;;5.05;80.95;94194.88;5088661;28;19984;-70
2021/11/27 09:27:16;;;;;;;;;;;;;;;5.13;81.18;94199.53;5092771;28;19923;-71
2021/11/27 09:29:41;;;;;;;;;;;;;;;5.19;80.88;94204.50;5092751;28;19939;-70
2021/11/27 09:32:07;;;;;;;;;;;;;;;5.22;80.46;94203.22;5092646;28;19916;-69
2021/11/27 09:34:32;;;;;;;;;;;;;;;5.46;79.43;94209.50;5092882;28;19920;-69
2021/11/27 09:36:59;;;;;;;;;;;;;;;5.44;79.24;94206.38;5092350;28;19923;-69
2021/11/27 09:39:25;;;;;;;;;;;;;;;5.58;78.87;94215.22;5080165;28;19923;-71
2021/11/27 09:41:51;;;;;;;;;;;;;;;5.62;77.98;94207.69;5092780;28;19920;-70
2021/11/27 09:44:18;;;;;;;;;;;;;;;5.47;77.41;94216.25;5092670;28;20299;-69
2021/11/27 09:46:44;;;;;;;;;;;;;;;5.50;77.21;94218.34;5094503;28;20383;-72
2021/11/27 09:49:18;;;;;;;;;;;;;;;5.65;77.17;94213.16;5077478;28;19916;-72
2021/11/27 09:51:43;;;;;;;;;;;;;;;5.70;77.40;94217.56;5095960;28;19916;-69
2021/11/27 09:54:12;;;;;;;;;;;;;;;5.54;78.46;94218.59;5095613;28;19946;-69
2021/11/27 09:56:37;;;;;;;;;;;;;;;5.58;79.11;94206.63;5090099;28;19966;-69
2021/11/27 09:59:03;;;;;;;;;;;;;;;5.40;79.90;94195.72;5078044;28;19951;-69
2021/11/27 10:01:32;;;;;;;;;;;;;;;5.36;80.17;94192.06;5096357;28;19916;-69
2021/11/27 10:04:00;;;;;;;;;;;;;;;5.35;81.02;94189.75;5096260;28;19916;-69
2021/11/27 10:06:26;;;;;;;;;;;;;;;5.19;82.58;94194.09;5098012;28;19927;-70
2021/11/27 10:08:52;;;;;;;;;;;;;;;5.40;81.24;94198.34;5095079;28;19943;-69
2021/11/27 10:11:17;;;;;;;;;;;;;;;5.47;81.16;94192.84;5095922;28;19912;-69
2021/11/27 10:13:42;;;;;;;;;;;;;;;5.91;78.19;94195.00;5094899;28;19916;-68
2021/11/27 10:16:08;;;;;;;;;;;;;;;5.66;79.15;94200.94;5095359;28;19962;-68
2021/11/27 10:18:33;;;;;;;;;;;;;;;5.66;78.01;94200.94;5095024;28;19970;-69
2021/11/27 10:21:18;;;;;;;;;;;;;;;5.62;78.06;94210.31;5076985;28;19920;-69
2021/11/27 10:23:43;;;;;;;;;;;;;;;5.65;78.12;94204.56;5077745;28;19916;-69
2021/11/27 10:26:28;;;;;;;;;;;;;;;5.74;77.85;94206.38;5095833;28;20272;-68
2021/11/27 10:28:53;;;;;;;;;;;;;;;5.59;78.73;94211.59;5093576;28;19916;-68
2021/11/27 10:31:27;;;;;;;;;;;;;;;5.71;78.12;94212.13;5095913;28;19916;-67
2021/11/27 10:33:59;;;;;;;;;;;;;;;5.76;78.01;94217.31;5096454;28;19993;-68
2021/11/27 10:36:30;;;;;;;;;;;;;;;5.53;76.80;94219.63;5096024;28;19920;-68
2021/11/27 10:39:02;;;;;;;;;;;;;;;5.67;76.02;94223.28;5095731;28;19915;-67
2021/11/27 10:41:34;;;;;;;;;;;;;;;5.51;76.52;94216.53;5077691;28;19919;-68
2021/11/27 10:44:01;;;;;;;;;;;;;;;5.81;75.36;94225.09;5095974;28;19920;-68
2021/11/27 10:46:28;;;;;;;;;;;;;;;5.88;74.63;94219.69;5095705;28;19916;-67
2021/11/27 10:48:53;;;;;;;;;;;;;;;5.70;74.48;94231.34;5094828;28;20014;-67
2021/11/27 10:51:19;;;;;;;;;;;;;;;5.95;73.33;94225.41;5094940;28;19978;-68
2021/11/27 10:53:51;;;;;;;;;;;;;;;5.94;72.83;94231.66;5094954;28;19916;-68
2021/11/27 10:56:16;;;;;;;;;;;;;;;5.94;73.21;94231.66;5094644;28;19919;-66
2021/11/27 10:58:59;;;;;;;;;;;;;;;5.94;73.59;94233.47;5094872;28;20341;-65
2021/11/27 11:01:24;;;;;;;;;;;;;;;6.02;73.05;94240.75;5084583;28;19916;-65
2021/11/27 11:03:50;;;;;;;;;;;;;;;6.03;72.27;94237.09;5077176;28;19923;-65
2021/11/27 11:06:22;;;;;;;;;;;;;;;5.78;73.30;94243.06;5094688;28;20392;-67
2021/11/27 11:08:49;;;;;;;;;;;;;;;5.93;73.99;94235.28;5094778;28;20390;-67
2021/11/27 11:11:20;;;;;;;;;;;;;;;5.97;72.58;94236.31;5094154;28;19924;-67
2021/11/27 11:13:46;;;;;;;;;;;;;;;5.88;73.07;94239.69;5094437;28;19945;-67
2021/11/27 11:16:12;;;;;;;;;;;;;;;5.78;72.41;94245.66;5094834;28;19963;-67
2021/11/27 11:18:37;;;;;;;;;;;;;;;5.81;72.13;94250.31;5095003;28;19951;-67
2021/11/27 11:21:06;;;;;;;;;;;;;;;5.58;71.96;94243.00;5094416;28;19923;-67
2021/11/27 11:23:32;;;;;;;;;;;;;;;5.57;72.20;94244.06;5094243;28;19927;-67
2021/11/27 11:26:01;;;;;;;;;;;;;;;5.55;72.35;94240.94;5076627;28;20342;-65
2021/11/27 11:28:31;;;;;;;;;;;;;;;5.55;72.85;94246.91;5094839;28;19916;-68
2021/11/27 11:31:00;;;;;;;;;;;;;;;5.57;72.85;94246.66;5094346;28;20254;-68
2021/11/27 11:33:26;;;;;;;;;;;;;;;5.62;72.93;94247.47;5080384;28;19915;-68
2021/11/27 11:35:51;;;;;;;;;;;;;;;5.64;72.41;94254.97;5093734;28;19935;-68
2021/11/27 11:38:18;;;;;;;;;;;;;;;5.52;73.06;94247.41;5094428;28;19963;-68
2021/11/27 11:40:44;;;;;;;;;;;;;;;5.49;73.77;94250.53;5076579;28;19916;-68
2021/11/27 11:43:10;;;;;;;;;;;;;;;5.62;73.30;94255.25;5094368;28;19916;-68
2021/11/27 11:45:35;;;;;;;;;;;;;;;5.61;73.49;94253.69;5087919;28;20300;-68
2021/11/27 11:48:02;;;;;;;;;;;;;;;5.81;72.73;94250.31;5085291;28;19920;-68
2021/11/27 11:50:28;;;;;;;;;;;;;;;5.96;72.84;94252.19;5094181;28;19920;-68
2021/11/27 11:52:56;;;;;;;;;;;;;;;6.06;72.89;94244.38;5093398;28;19924;-68
2021/11/27 11:55:22;;;;;;;;;;;;;;;6.31;71.87;94253.97;5090771;28;20024;-68
2021/11/27 11:57:47;;;;;;;;;;;;;;;6.30;71.71;94257.66;5093699;28;19920;-68
2021/11/27 12:00:19;;;;;;;;;;;;;;;6.20;71.89;94261.00;5092750;28;20348;-68
2021/11/27 12:02:45;;;;;;;;;;;;;;;6.41;71.49;94269.59;5093942;28;20447;-68
2021/11/27 12:05:17;;;;;;;;;;;;;;;6.24;71.93;94255.03;5093355;28;20022;-69